createdAt,value
2019-05-18T00:02:24.843Z,3.10
2019-05-18T00:04:51.943Z,2.43
2019-05-18T00:07:19.036Z,2.63
2019-05-18T00:09:46.552Z,2.50
2019-05-18T00:12:13.642Z,2.60
2019-05-18T00:14:40.824Z,2.50
2019-05-18T00:17:25.443Z,2.20
2019-05-18T00:19:49.106Z,2.30
2019-05-18T00:22:16.399Z,2.40
2019-05-18T00:24:45.369Z,2.43
2019-05-18T00:27:12.603Z,2.90
2019-05-18T00:29:51.828Z,2.57
2019-05-18T00:32:14.423Z,2.50
2019-05-18T00:34:41.582Z,2.40
2019-05-18T00:37:21.015Z,2.47
2019-05-18T00:39:48.109Z,2.57
2019-05-18T00:42:15.172Z,2.87
2019-05-18T00:44:42.256Z,2.37
2019-05-18T00:47:09.705Z,2.60
2019-05-18T00:49:36.763Z,2.47
2019-05-18T00:52:04.087Z,1.80
2019-05-18T00:54:31.224Z,2.27
2019-05-18T00:56:58.338Z,2.50
2019-05-18T00:59:25.592Z,2.30
2019-05-18T01:01:57.128Z,2.40
2019-05-18T01:04:24.236Z,3.23
2019-05-18T01:06:51.326Z,1.90
2019-05-18T01:09:18.591Z,2.20
2019-05-18T01:11:45.690Z,2.20
2019-05-18T01:14:13.041Z,2.53
2019-05-18T01:16:40.159Z,2.03
2019-05-18T01:19:07.267Z,2.63
2019-05-18T01:21:34.343Z,2.13
2019-05-18T01:24:01.443Z,2.50
2019-05-18T01:26:28.563Z,2.50
2019-05-18T01:28:55.677Z,2.17
2019-05-18T01:31:23.004Z,2.50
2019-05-18T01:33:50.070Z,2.23
2019-05-18T01:36:17.147Z,2.40
2019-05-18T01:38:44.364Z,2.30
2019-05-18T01:41:11.532Z,2.00
2019-05-18T01:43:38.859Z,2.10
2019-05-18T01:46:05.919Z,2.20
2019-05-18T01:48:33.093Z,2.50
2019-05-18T01:51:00.185Z,1.80
2019-05-18T01:53:27.450Z,2.30
2019-05-18T01:55:54.519Z,2.10
2019-05-18T01:58:21.630Z,2.30
2019-05-18T02:00:52.601Z,1.90
2019-05-18T02:03:19.396Z,2.13
2019-05-18T02:05:46.536Z,2.20
2019-05-18T02:08:13.664Z,2.10
2019-05-18T02:10:41.112Z,1.90
2019-05-18T02:13:08.257Z,2.23
2019-05-18T02:15:35.357Z,2.03
2019-05-18T02:18:04.212Z,2.10
2019-05-18T02:20:31.452Z,2.00
2019-05-18T02:22:58.596Z,2.00
2019-05-18T02:25:25.693Z,2.33
2019-05-18T02:27:52.801Z,2.10
2019-05-18T02:30:21.078Z,2.00
2019-05-18T02:32:48.368Z,1.87
2019-05-18T02:35:15.463Z,2.30
2019-05-18T02:37:42.582Z,2.93
2019-05-18T02:40:09.647Z,1.80
2019-05-18T02:42:36.802Z,1.83
2019-05-18T02:45:03.948Z,2.17
2019-05-18T02:47:31.037Z,2.30
2019-05-18T02:49:58.366Z,2.37
2019-05-18T02:52:25.441Z,2.30
2019-05-18T02:54:53.103Z,1.77
2019-05-18T02:57:20.289Z,2.07
2019-05-18T02:59:47.603Z,2.03
2019-05-18T03:02:15.233Z,1.80
2019-05-18T03:04:42.368Z,2.10
2019-05-18T03:07:09.637Z,1.93
2019-05-18T03:09:36.709Z,2.17
2019-05-18T03:12:03.857Z,1.90
2019-05-18T03:14:31.532Z,2.10
2019-05-18T03:16:58.758Z,2.03
2019-05-18T03:19:25.857Z,1.80
2019-05-18T03:21:55.497Z,2.00
2019-05-18T03:24:21.852Z,2.10
2019-05-18T03:26:48.919Z,1.80
2019-05-18T03:29:16.046Z,2.10
2019-05-18T03:31:43.571Z,1.93
2019-05-18T03:34:10.717Z,1.53
2019-05-18T03:36:37.846Z,1.70
2019-05-18T03:39:04.912Z,1.80
2019-05-18T03:41:32.127Z,1.80
2019-05-18T03:43:59.281Z,1.80
2019-05-18T03:46:26.380Z,1.80
2019-05-18T03:48:53.710Z,2.13
2019-05-18T03:51:20.821Z,2.20
2019-05-18T03:53:47.975Z,2.20
2019-05-18T03:56:15.127Z,2.00
2019-05-18T03:58:42.180Z,1.70
2019-05-18T04:01:09.291Z,2.43
2019-05-18T04:03:38.105Z,1.73
2019-05-18T04:06:05.269Z,1.70
2019-05-18T04:08:32.367Z,1.90
2019-05-18T04:10:59.530Z,1.87
2019-05-18T04:13:26.602Z,1.70
2019-05-18T04:15:53.930Z,1.73
2019-05-18T04:18:21.038Z,1.70
2019-05-18T04:20:48.338Z,1.80
2019-05-18T04:23:15.396Z,2.13
2019-05-18T04:25:43.919Z,1.80
2019-05-18T04:28:11.451Z,1.80
2019-05-18T04:30:38.545Z,1.70
2019-05-18T04:33:05.832Z,1.80
2019-05-18T04:35:32.912Z,2.10
2019-05-18T04:38:05.130Z,2.23
2019-05-18T04:40:32.272Z,1.70
2019-05-18T04:42:59.564Z,2.00
2019-05-18T04:45:26.640Z,2.10
2019-05-18T04:47:53.720Z,2.30
2019-05-18T04:50:20.880Z,2.03
2019-05-18T04:52:47.945Z,2.00
2019-05-18T04:55:15.062Z,1.97
2019-05-18T04:57:42.157Z,2.00
2019-05-18T05:00:09.394Z,1.80
2019-05-18T05:02:36.523Z,2.00
2019-05-18T05:05:03.649Z,1.83
2019-05-18T05:07:30.758Z,1.90
2019-05-18T05:09:57.817Z,1.97
2019-05-18T05:12:25.148Z,2.00
2019-05-18T05:14:52.209Z,1.90
2019-05-18T05:17:19.274Z,1.90
2019-05-18T05:19:46.379Z,2.10
2019-05-18T05:22:13.447Z,1.80
2019-05-18T05:24:40.513Z,1.70
2019-05-18T05:27:07.605Z,1.77
2019-05-18T05:29:34.665Z,2.00
2019-05-18T05:32:01.977Z,1.90
2019-05-18T05:34:29.262Z,2.30
2019-05-18T05:36:56.327Z,2.13
2019-05-18T05:39:23.424Z,2.20
2019-05-18T05:41:50.496Z,2.00
2019-05-18T05:44:17.783Z,1.90
2019-05-18T05:46:44.849Z,2.27
2019-05-18T05:49:12.000Z,2.20
2019-05-18T05:51:39.064Z,2.27
2019-05-18T05:54:06.167Z,1.87
2019-05-18T05:56:33.224Z,2.20
2019-05-18T05:59:00.333Z,2.30
2019-05-18T06:01:27.456Z,2.20
2019-05-18T06:03:54.523Z,2.30
2019-05-18T06:06:23.178Z,1.93
2019-05-18T06:08:50.382Z,2.60
2019-05-18T06:11:17.557Z,2.57
2019-05-18T06:13:44.618Z,2.37
2019-05-18T06:16:11.716Z,2.20
2019-05-18T06:18:38.812Z,2.40
2019-05-18T06:21:05.961Z,2.17
2019-05-18T06:23:33.044Z,2.00
2019-05-18T06:26:00.129Z,2.30
2019-05-18T06:28:27.253Z,2.50
2019-05-18T06:30:54.565Z,1.90
2019-05-18T06:33:21.657Z,2.50
2019-05-18T06:35:48.785Z,2.60
2019-05-18T06:38:15.863Z,2.40
2019-05-18T06:40:43.214Z,2.70
2019-05-18T06:43:10.362Z,2.87
2019-05-18T06:45:37.502Z,2.90
2019-05-18T06:48:04.726Z,2.67
2019-05-18T06:50:31.853Z,3.27
2019-05-18T06:52:59.031Z,3.03
2019-05-18T06:55:26.115Z,2.60
2019-05-18T06:57:56.200Z,3.00
2019-05-18T07:00:22.022Z,2.83
2019-05-18T07:02:49.242Z,3.00
2019-05-18T07:05:16.608Z,2.90
2019-05-18T07:07:43.755Z,2.83
2019-05-18T07:10:12.032Z,2.77
2019-05-18T07:12:39.107Z,2.63
2019-05-18T07:15:08.348Z,3.50
2019-05-18T07:17:35.452Z,2.97
2019-05-18T07:20:02.527Z,3.00
2019-05-18T07:22:29.726Z,3.00
2019-05-18T07:24:56.790Z,2.70
2019-05-18T07:27:24.034Z,2.73
2019-05-18T07:29:51.098Z,3.50
2019-05-18T07:32:18.434Z,2.60
2019-05-18T07:34:45.580Z,2.73
2019-05-18T07:37:12.670Z,3.63
2019-05-18T07:39:39.731Z,3.03
2019-05-18T07:42:06.938Z,3.63
2019-05-18T07:44:34.019Z,3.80
2019-05-18T07:47:01.222Z,3.33
2019-05-18T07:49:28.293Z,3.73
2019-05-18T07:51:55.532Z,3.80
2019-05-18T07:54:22.595Z,3.67
2019-05-18T07:56:49.697Z,3.80
2019-05-18T07:59:19.748Z,4.37
2019-05-18T08:01:45.764Z,4.90
2019-05-18T08:04:12.837Z,4.27
2019-05-18T08:06:39.931Z,4.53
2019-05-18T08:09:07.019Z,4.13
2019-05-18T08:11:34.171Z,4.20
2019-05-18T08:14:01.233Z,3.40
2019-05-18T08:16:28.308Z,3.97
2019-05-18T08:18:58.123Z,4.00
2019-05-18T08:21:24.149Z,4.10
2019-05-18T08:23:51.450Z,3.80
2019-05-18T08:26:18.548Z,3.37
2019-05-18T08:28:45.615Z,3.13
2019-05-18T08:31:12.791Z,3.80
2019-05-18T08:33:39.849Z,3.87
2019-05-18T08:36:06.941Z,3.97
2019-05-18T08:38:34.029Z,4.40
2019-05-18T08:41:01.094Z,3.50
2019-05-18T08:43:28.250Z,3.63
2019-05-18T08:45:55.376Z,4.57
2019-05-18T08:48:22.469Z,3.30
2019-05-18T08:50:49.767Z,4.17
2019-05-18T08:53:17.053Z,3.40
2019-05-18T08:55:44.110Z,3.50
2019-05-18T08:58:11.207Z,4.27
2019-05-18T09:00:38.379Z,3.50
2019-05-18T09:03:05.448Z,4.37
2019-05-18T09:05:32.565Z,5.20
2019-05-18T09:07:59.625Z,4.10
2019-05-18T09:10:26.786Z,3.60
2019-05-18T09:12:53.882Z,3.77
2019-05-18T09:15:20.977Z,3.77
2019-05-18T09:17:48.050Z,4.37
2019-05-18T09:20:15.124Z,3.80
2019-05-18T09:22:42.251Z,3.80
2019-05-18T09:25:09.332Z,3.23
2019-05-18T09:27:36.420Z,3.13
2019-05-18T09:30:03.543Z,3.60
2019-05-18T09:32:30.694Z,3.53
2019-05-18T09:34:57.765Z,3.83
2019-05-18T09:37:24.853Z,3.80
2019-05-18T09:39:51.952Z,3.83
2019-05-18T09:42:19.087Z,3.47
2019-05-18T09:44:46.153Z,3.50
2019-05-18T09:47:13.767Z,3.37
2019-05-18T09:49:40.924Z,3.40
2019-05-18T09:52:08.034Z,3.60
2019-05-18T09:54:35.121Z,4.53
2019-05-18T09:57:02.227Z,3.53
2019-05-18T09:59:29.287Z,3.70
2019-05-18T10:01:56.433Z,3.40
2019-05-18T10:04:23.519Z,3.77
2019-05-18T10:06:50.597Z,3.40
2019-05-18T10:09:17.763Z,3.53
2019-05-18T10:11:44.834Z,3.30
2019-05-18T10:14:11.906Z,2.80
2019-05-18T10:16:39.149Z,3.50
2019-05-18T10:19:06.224Z,3.10
2019-05-18T10:21:33.458Z,3.53
2019-05-18T10:24:00.606Z,3.43
2019-05-18T10:26:27.687Z,3.23
2019-05-18T10:28:54.738Z,3.87
2019-05-18T10:31:21.837Z,3.30
2019-05-18T10:33:48.916Z,2.73
2019-05-18T10:36:16.023Z,3.83
2019-05-18T10:38:43.097Z,3.47
2019-05-18T10:41:10.185Z,3.00
2019-05-18T10:43:37.279Z,3.13
2019-05-18T10:46:04.378Z,3.17
2019-05-18T10:48:31.443Z,3.27
2019-05-18T10:50:58.501Z,3.30
2019-05-18T10:53:28.918Z,3.90
2019-05-18T10:55:54.417Z,3.00
2019-05-18T10:58:21.517Z,2.87
2019-05-18T11:00:48.584Z,3.47
2019-05-18T11:03:15.691Z,3.10
2019-05-18T11:05:42.783Z,3.10
2019-05-18T11:08:09.851Z,3.83
2019-05-18T11:10:36.937Z,3.03
2019-05-18T11:13:04.001Z,3.00
2019-05-18T11:15:31.106Z,2.60
2019-05-18T11:17:58.168Z,3.63
2019-05-18T11:20:25.450Z,3.10
2019-05-18T11:22:52.507Z,3.13
2019-05-18T11:25:19.698Z,2.87
2019-05-18T11:27:46.974Z,3.47
2019-05-18T11:30:14.047Z,3.07
2019-05-18T11:32:41.146Z,3.10
2019-05-18T11:35:08.285Z,3.07
2019-05-18T11:37:35.393Z,3.40
2019-05-18T11:40:02.450Z,3.50
2019-05-18T11:42:29.678Z,3.10
2019-05-18T11:44:56.756Z,3.40
2019-05-18T11:47:23.847Z,3.30
2019-05-18T11:49:50.961Z,3.00
2019-05-18T11:52:21.219Z,2.83
2019-05-18T11:54:48.320Z,3.03
2019-05-18T11:57:15.422Z,3.47
2019-05-18T11:59:42.545Z,3.00
2019-05-18T12:02:11.448Z,2.80
2019-05-18T12:04:38.595Z,3.50
2019-05-18T12:07:05.685Z,3.40
2019-05-18T12:09:33.235Z,3.27
2019-05-18T12:12:00.523Z,2.67
2019-05-18T12:14:27.667Z,3.23
2019-05-18T12:16:54.744Z,2.70
2019-05-18T12:19:21.829Z,2.70
2019-05-18T12:21:48.890Z,2.97
2019-05-18T12:24:16.231Z,2.97
2019-05-18T12:26:43.544Z,2.80
2019-05-18T12:29:10.725Z,3.00
2019-05-18T12:31:37.814Z,3.00
2019-05-18T12:34:04.880Z,2.30
2019-05-18T12:36:32.016Z,3.10
2019-05-18T12:38:59.279Z,2.83
2019-05-18T12:41:26.622Z,2.00
2019-05-18T12:43:53.761Z,2.93
2019-05-18T12:46:20.826Z,2.80
2019-05-18T12:48:48.167Z,3.20
2019-05-18T12:51:15.469Z,2.70
2019-05-18T12:53:42.582Z,2.60
2019-05-18T12:56:09.677Z,2.87
2019-05-18T12:58:37.714Z,3.40
2019-05-18T13:01:05.059Z,2.40
2019-05-18T13:03:32.187Z,3.13
2019-05-18T13:05:59.297Z,2.90
2019-05-18T13:08:26.387Z,3.23
2019-05-18T13:10:53.640Z,2.90
2019-05-18T13:13:20.823Z,3.40
2019-05-18T13:15:47.961Z,3.40
2019-05-18T13:18:15.070Z,2.93
2019-05-18T13:20:42.136Z,3.33
2019-05-18T13:23:09.301Z,3.17
2019-05-18T13:25:36.421Z,3.13
2019-05-18T13:28:03.607Z,3.20
2019-05-18T13:30:30.741Z,2.97
2019-05-18T13:32:57.879Z,2.63
2019-05-18T13:35:24.993Z,4.30
2019-05-18T13:37:52.074Z,2.80
2019-05-18T13:40:19.231Z,3.00
2019-05-18T13:42:46.302Z,4.50
2019-05-18T13:45:13.369Z,3.57
2019-05-18T13:47:40.475Z,3.70
2019-05-18T13:50:07.570Z,3.17
2019-05-18T13:52:34.881Z,3.50
2019-05-18T13:55:04.819Z,3.20
2019-05-18T13:57:30.729Z,3.93
2019-05-18T13:59:57.829Z,3.47
2019-05-18T14:02:24.906Z,3.03
2019-05-18T14:04:51.995Z,3.17
2019-05-18T14:07:19.057Z,3.43
2019-05-18T14:09:46.402Z,3.53
2019-05-18T14:12:13.460Z,3.33
2019-05-18T14:14:40.571Z,3.90
2019-05-18T14:17:08.075Z,3.70
2019-05-18T14:19:35.208Z,3.33
2019-05-18T14:22:02.323Z,3.80
2019-05-18T14:24:29.466Z,3.43
2019-05-18T14:26:56.553Z,3.17
2019-05-18T14:29:23.637Z,3.33
2019-05-18T14:31:50.780Z,3.47
2019-05-18T14:34:17.876Z,3.40
2019-05-18T14:36:45.053Z,4.30
2019-05-18T14:39:12.148Z,4.13
2019-05-18T14:41:42.315Z,3.13
2019-05-18T14:44:08.235Z,4.00
2019-05-18T14:46:35.303Z,3.33
2019-05-18T14:49:02.425Z,2.97
2019-05-18T14:51:29.582Z,3.10
2019-05-18T14:53:56.682Z,3.47
2019-05-18T14:56:23.789Z,3.60
2019-05-18T14:58:50.915Z,3.80
2019-05-18T15:01:17.991Z,2.77
2019-05-18T15:03:45.205Z,3.80
2019-05-18T15:06:12.334Z,4.40
2019-05-18T15:08:39.475Z,3.77
2019-05-18T15:11:06.578Z,3.27
2019-05-18T15:13:33.832Z,2.67
2019-05-18T15:16:00.898Z,2.00
2019-05-18T15:18:28.015Z,2.40
2019-05-18T15:20:55.374Z,2.00
2019-05-18T15:23:22.443Z,2.47
2019-05-18T15:25:51.183Z,2.50
2019-05-18T15:28:18.307Z,2.53
2019-05-18T15:30:45.611Z,2.40
2019-05-18T15:33:12.709Z,2.57
2019-05-18T15:35:39.797Z,2.80
2019-05-18T15:38:06.890Z,2.30
2019-05-18T15:40:33.977Z,2.40
2019-05-18T15:43:01.307Z,2.70
2019-05-18T15:45:28.410Z,2.40
2019-05-18T15:47:55.504Z,2.60
2019-05-18T15:50:23.613Z,2.63
2019-05-18T15:52:50.872Z,2.40
2019-05-18T15:55:17.967Z,1.90
2019-05-18T15:57:45.035Z,2.43
2019-05-18T16:00:12.254Z,5.30
2019-05-18T16:02:39.409Z,15.93
2019-05-18T16:05:06.488Z,11.37
2019-05-18T16:07:33.614Z,8.43
2019-05-18T16:10:00.725Z,7.13
2019-05-18T16:12:27.805Z,5.07
2019-05-18T16:14:54.893Z,3.63
2019-05-18T16:17:22.351Z,3.60
2019-05-18T16:19:49.479Z,3.67
2019-05-18T16:22:16.715Z,3.00
2019-05-18T16:24:43.803Z,3.10
2019-05-18T16:27:10.918Z,2.90
2019-05-18T16:29:37.977Z,3.40
2019-05-18T16:32:05.314Z,2.40
2019-05-18T16:34:32.390Z,3.13
2019-05-18T16:37:00.856Z,2.63
2019-05-18T16:39:28.219Z,2.60
2019-05-18T16:41:55.518Z,2.50
2019-05-18T16:44:22.580Z,2.50
2019-05-18T16:46:49.675Z,3.33
2019-05-18T16:49:16.736Z,2.53
2019-05-18T16:51:43.915Z,2.60
2019-05-18T16:54:11.032Z,2.40
2019-05-18T16:56:38.113Z,2.60
2019-05-18T16:59:05.213Z,2.27
2019-05-18T17:01:32.278Z,2.47
2019-05-18T17:03:59.548Z,3.60
2019-05-18T17:06:26.611Z,3.17
2019-05-18T17:08:53.759Z,2.87
2019-05-18T17:11:20.900Z,2.67
2019-05-18T17:13:47.993Z,3.10
2019-05-18T17:16:15.061Z,3.00
2019-05-18T17:18:42.128Z,3.07
2019-05-18T17:21:09.268Z,2.60
2019-05-18T17:23:36.378Z,2.33
2019-05-18T17:26:03.477Z,3.90
2019-05-18T17:28:30.745Z,3.77
2019-05-18T17:30:57.915Z,3.00
2019-05-18T17:33:25.232Z,3.00
2019-05-18T17:36:00.338Z,2.90
2019-05-18T17:38:21.322Z,2.70
2019-05-18T17:40:48.520Z,3.13
2019-05-18T17:43:15.652Z,2.97
2019-05-18T17:45:42.874Z,2.93
2019-05-18T17:48:10.033Z,2.47
2019-05-18T17:50:37.188Z,3.03
2019-05-18T17:53:04.274Z,2.50
2019-05-18T17:55:31.425Z,2.20
2019-05-18T17:57:58.604Z,3.00
2019-05-18T18:00:26.006Z,3.03
2019-05-18T18:02:53.201Z,2.30
2019-05-18T18:05:20.331Z,2.67
2019-05-18T18:07:47.589Z,2.50
2019-05-18T18:10:14.757Z,3.00
2019-05-18T18:12:42.816Z,2.77
2019-05-18T18:15:10.013Z,2.70
2019-05-18T18:17:37.261Z,2.63
2019-05-18T18:20:04.374Z,2.43
2019-05-18T18:22:31.560Z,2.40
2019-05-18T18:24:58.766Z,2.90
2019-05-18T18:27:29.282Z,2.40
2019-05-18T18:29:54.878Z,2.87
2019-05-18T18:32:22.737Z,2.63
2019-05-18T18:34:49.849Z,3.40
2019-05-18T18:37:18.964Z,3.07
2019-05-18T18:39:45.836Z,3.00
2019-05-18T18:42:12.953Z,2.70
2019-05-18T18:44:40.170Z,2.60
2019-05-18T18:47:07.364Z,3.00
2019-05-18T18:49:34.652Z,2.90
2019-05-18T18:52:01.915Z,2.60
2019-05-18T18:54:29.157Z,2.87
2019-05-18T18:56:56.304Z,3.10
2019-05-18T18:59:23.517Z,2.63
2019-05-18T19:01:50.915Z,3.07
2019-05-18T19:04:18.136Z,2.90
2019-05-18T19:06:45.406Z,3.30
2019-05-18T19:09:12.570Z,2.90
2019-05-18T19:11:39.736Z,3.30
2019-05-18T19:14:07.091Z,3.07
2019-05-18T19:16:34.289Z,3.33
2019-05-18T19:19:01.476Z,2.87
2019-05-18T19:21:28.944Z,3.77
2019-05-18T19:23:56.055Z,3.53
2019-05-18T19:26:23.253Z,3.37
2019-05-18T19:28:50.444Z,3.10
2019-05-18T19:31:17.596Z,3.47
2019-05-18T19:33:44.665Z,3.27
2019-05-18T19:36:11.831Z,3.77
2019-05-18T19:38:38.976Z,2.80
2019-05-18T19:41:06.315Z,3.03
2019-05-18T19:43:33.439Z,3.13
2019-05-18T19:46:00.552Z,3.00
2019-05-18T19:48:27.648Z,3.43
2019-05-18T19:50:54.787Z,3.30
2019-05-18T19:53:21.901Z,2.60
2019-05-18T19:55:49.070Z,2.57
2019-05-18T19:58:16.193Z,2.50
2019-05-18T20:00:43.260Z,3.80
2019-05-18T20:03:10.448Z,2.80
2019-05-18T20:05:37.736Z,2.93
2019-05-18T20:08:05.888Z,3.60
2019-05-18T20:13:25.252Z,3.50
2019-05-18T20:15:52.316Z,3.07
2019-05-18T20:18:19.419Z,3.50
2019-05-18T20:20:46.817Z,3.50
2019-05-18T20:23:13.885Z,3.23
2019-05-18T20:25:40.964Z,3.17
2019-05-18T20:28:08.049Z,3.57
2019-05-18T20:30:35.202Z,3.47
2019-05-18T20:33:02.287Z,3.27
2019-05-18T20:35:29.533Z,3.60
2019-05-18T20:37:56.699Z,3.70
2019-05-18T20:40:24.051Z,4.43
2019-05-18T20:42:51.125Z,3.47
2019-05-18T20:45:18.402Z,3.30
2019-05-18T20:47:45.597Z,3.33
2019-05-18T20:50:12.857Z,3.43
2019-05-18T20:52:40.151Z,2.73
2019-05-18T20:55:07.292Z,3.43
2019-05-18T20:57:34.382Z,4.80
2019-05-18T21:00:01.509Z,3.63
2019-05-18T21:02:28.729Z,3.10
2019-05-18T21:04:55.931Z,3.80
2019-05-18T21:07:23.112Z,3.27
2019-05-18T21:09:50.207Z,3.30
2019-05-18T21:12:17.321Z,3.20
2019-05-18T21:14:44.416Z,2.67
2019-05-18T21:17:12.259Z,3.10
2019-05-18T21:19:39.384Z,3.60
2019-05-18T21:22:06.591Z,3.30
2019-05-18T21:24:33.696Z,3.30
2019-05-18T21:27:00.809Z,2.87
2019-05-18T21:29:27.943Z,2.90
2019-05-18T21:31:55.091Z,3.83
2019-05-18T21:34:22.153Z,3.00
2019-05-18T21:36:49.275Z,2.90
2019-05-18T21:39:16.413Z,3.20
2019-05-18T21:41:43.721Z,2.63
2019-05-18T21:44:10.804Z,2.60
2019-05-18T21:46:39.190Z,2.90
2019-05-18T21:49:06.342Z,2.80
2019-05-18T21:51:33.615Z,2.80
2019-05-18T21:54:00.971Z,2.90
2019-05-18T21:56:28.143Z,3.23
2019-05-18T21:59:09.035Z,2.70
2019-05-18T22:01:24.143Z,2.97
2019-05-18T22:03:51.199Z,3.77
2019-05-18T22:06:18.414Z,3.10
2019-05-18T22:08:45.516Z,2.70
2019-05-18T22:11:12.585Z,2.70
2019-05-18T22:13:39.684Z,2.80
2019-05-18T22:16:06.789Z,2.63
2019-05-18T22:18:33.857Z,2.70
2019-05-18T22:21:01.147Z,3.40
2019-05-18T22:23:28.206Z,3.20
2019-05-18T22:25:57.195Z,2.77
2019-05-18T22:28:24.071Z,2.63
2019-05-18T22:30:51.371Z,2.37
2019-05-18T22:33:18.430Z,2.50
2019-05-18T22:35:45.532Z,2.50
2019-05-18T22:38:12.594Z,3.23
2019-05-18T22:40:39.769Z,2.97
2019-05-18T22:43:06.834Z,2.90
2019-05-18T22:45:33.920Z,2.90
2019-05-18T22:48:01.016Z,2.40
2019-05-18T22:50:28.096Z,2.60
2019-05-18T22:52:55.419Z,2.83
2019-05-18T22:55:22.506Z,2.57
2019-05-18T22:57:49.715Z,3.00
2019-05-18T23:00:16.785Z,2.40
2019-05-18T23:02:44.015Z,3.23
2019-05-18T23:05:11.080Z,3.10
2019-05-18T23:07:38.177Z,2.57
2019-05-18T23:10:05.251Z,3.00
2019-05-18T23:12:32.427Z,2.83
2019-05-18T23:14:59.476Z,2.40
2019-05-18T23:17:26.646Z,2.90
2019-05-18T23:19:53.762Z,2.70
2019-05-18T23:22:21.017Z,2.70
2019-05-18T23:24:48.117Z,2.93
2019-05-18T23:27:15.179Z,3.00
2019-05-18T23:29:42.277Z,2.57
2019-05-18T23:32:09.703Z,2.53
2019-05-18T23:34:36.757Z,2.70
2019-05-18T23:37:03.851Z,2.57
2019-05-18T23:39:31.016Z,2.90
2019-05-18T23:41:58.079Z,2.77
2019-05-18T23:44:25.171Z,2.20
2019-05-18T23:46:52.251Z,2.80
2019-05-18T23:49:19.319Z,3.17
2019-05-18T23:51:46.603Z,2.87
2019-05-18T23:54:13.675Z,2.90
2019-05-18T23:56:40.770Z,2.33
2019-05-18T23:59:07.843Z,2.70
